Time;durP1;ratioP1;P1;durP2;ratioP2;P2;SDS_P1;SDS_P2;PMS_P1;PMS_P2;Temp;Humidity;BMP_temperature;BMP_pressure;BME280_temperature;BME280_humidity;BME280_pressure;Samples;Min_cycle;Max_cycle;Signal;HPM_P1;HPM_P2
2023/01/22 00:02:24;;;;;;;0.08;0.08;;;;;;;10.71;67.16;102204.75;7351647;19;20014;-58
2023/01/22 00:04:50;;;;;;;0.00;0.00;;;;;;;10.73;67.17;102203.00;7352400;19;20014;-57
2023/01/22 00:07:15;;;;;;;0.10;0.10;;;;;;;10.75;66.73;102216.94;7357397;19;20688;-58
2023/01/22 00:09:41;;;;;;;0.10;0.10;;;;;;;10.78;66.70;102206.47;7350067;19;20501;-58
2023/01/22 00:12:07;;;;;;;0.00;0.00;;;;;;;10.80;66.72;102199.53;7344934;19;20006;-58
2023/01/22 00:14:32;;;;;;;0.00;0.00;;;;;;;10.83;66.83;102204.75;7345782;19;20019;-58
2023/01/22 00:16:58;;;;;;;0.00;0.00;;;;;;;10.86;66.87;102208.25;7354837;19;20407;-57
2023/01/22 00:19:23;;;;;;;0.10;0.10;;;;;;;10.87;66.80;102206.50;7352159;19;20029;-58
2023/01/22 00:21:49;;;;;;;0.00;0.00;;;;;;;10.87;66.77;102206.50;7356467;19;20014;-58
2023/01/22 00:24:14;;;;;;;0.00;0.00;;;;;;;10.88;66.71;102197.78;7356403;19;20487;-58
2023/01/22 00:26:39;;;;;;;0.00;0.00;;;;;;;10.90;66.61;102206.50;7359257;19;20019;-57
2023/01/22 00:29:05;;;;;;;0.00;0.00;;;;;;;10.93;66.99;102206.47;7359448;19;20010;-58
2023/01/22 00:31:30;;;;;;;0.00;0.00;;;;;;;10.94;66.60;102197.75;7361147;19;20007;-57
2023/01/22 00:33:56;;;;;;;0.00;0.00;;;;;;;10.95;66.66;102183.84;7356131;19;20014;-58
2023/01/22 00:36:22;;;;;;;0.00;0.00;;;;;;;10.96;66.43;102188.19;7360441;19;20033;-58
2023/01/22 00:38:49;;;;;;;0.10;0.10;;;;;;;10.97;66.60;102186.47;7356517;19;20086;-57
2023/01/22 00:41:16;;;;;;;0.00;0.00;;;;;;;10.99;66.87;102195.16;7361173;19;20006;-58
2023/01/22 00:43:42;;;;;;;0.10;0.10;;;;;;;10.88;66.89;102179.47;7352592;19;20010;-58
2023/01/22 00:46:10;;;;;;;0.03;0.03;;;;;;;11.03;66.43;102189.94;7361366;19;21040;-57
2023/01/22 00:48:36;;;;;;;0.00;0.00;;;;;;;11.03;66.53;102181.22;7361008;19;20470;-58
2023/01/22 00:51:01;;;;;;;0.10;0.10;;;;;;;11.03;66.23;102174.25;7361205;19;20017;-58
2023/01/22 00:53:27;;;;;;;0.00;0.00;;;;;;;11.04;66.26;102183.81;7355868;19;20022;-58
2023/01/22 00:55:54;;;;;;;0.00;0.00;;;;;;;11.08;66.62;102180.34;7361324;19;21242;-57
2023/01/22 00:58:20;;;;;;;0.00;0.00;;;;;;;11.07;66.42;102173.38;7356332;19;20010;-56
2023/01/22 01:00:46;;;;;;;0.00;0.00;;;;;;;11.06;66.65;102178.63;7358762;19;20469;-58
2023/01/22 01:03:29;;;;;;;0.03;0.03;;;;;;;11.07;66.37;102176.00;7355214;19;20011;-58
2023/01/22 01:06:06;;;;;;;0.00;0.00;;;;;;;11.13;66.24;102178.59;7359278;19;20888;-57
2023/01/22 01:08:34;;;;;;;0.00;0.00;;;;;;;11.13;66.43;102178.59;7358212;19;20473;-57
2023/01/22 01:11:03;;;;;;;0.03;0.03;;;;;;;11.12;66.57;102174.25;7361362;19;20045;-58
2023/01/22 01:13:31;;;;;;;0.00;0.00;;;;;;;11.09;66.23;102173.38;7351807;19;20022;-57
2023/01/22 01:15:59;;;;;;;0.10;0.10;;;;;;;11.08;66.42;102175.09;7360978;19;20007;-58
2023/01/22 01:18:24;;;;;;;0.00;0.00;;;;;;;11.05;66.29;102169.91;7357368;19;20018;-57
2023/01/22 01:20:54;;;;;;;0.00;0.00;;;;;;;11.10;66.40;102173.38;7359140;19;20018;-58
2023/01/22 01:23:20;;;;;;;0.05;0.05;;;;;;;11.08;66.03;102169.88;7355723;19;20021;-58
2023/01/22 01:25:45;;;;;;;0.00;0.00;;;;;;;11.08;66.29;102175.09;7357461;19;22190;-58
2023/01/22 01:28:11;;;;;;;0.00;0.00;;;;;;;11.09;66.31;102155.94;7359502;19;20023;-58
2023/01/22 01:30:36;;;;;;;0.00;0.00;;;;;;;11.09;66.28;102166.38;7358145;19;20034;-58
2023/01/22 01:33:01;;;;;;;0.10;0.10;;;;;;;11.10;66.22;102162.94;7358746;19;20031;-58
2023/01/22 01:35:27;;;;;;;0.00;0.00;;;;;;;11.09;66.13;102166.38;7356307;19;20002;-57
2023/01/22 01:37:52;;;;;;;0.10;0.10;;;;;;;11.08;66.02;102158.56;7356883;19;20102;-58
2023/01/22 01:40:18;;;;;;;0.10;0.10;;;;;;;11.10;65.86;102167.25;7360288;19;20006;-57
2023/01/22 01:42:45;;;;;;;0.00;0.00;;;;;;;11.13;66.21;102157.66;7355330;19;20089;-58
2023/01/22 01:45:22;;;;;;;0.03;0.03;;;;;;;11.16;66.25;102143.75;7352901;19;20010;-57
2023/01/22 01:47:52;;;;;;;;;;;;;;;11.17;66.11;102138.50;7359432;19;20014;-57
2023/01/22 01:50:20;;;;;;;0.00;0.00;;;;;;;11.15;66.03;102145.50;7354031;19;19915;-58
2023/01/22 01:52:46;;;;;;;0.00;0.00;;;;;;;11.16;65.83;102141.13;7357299;19;20018;-56
2023/01/22 01:55:13;;;;;;;0.00;0.00;;;;;;;11.14;66.06;102132.41;7354433;19;20010;-57
2023/01/22 01:57:40;;;;;;;0.00;0.00;;;;;;;11.14;65.92;102132.41;7357515;19;20500;-58
2023/01/22 02:00:11;;;;;;;0.00;0.00;;;;;;;11.14;65.86;102133.25;7357383;19;20002;-58
2023/01/22 02:02:37;;;;;;;0.00;0.00;;;;;;;11.09;65.83;102128.91;7358150;19;20436;-57
2023/01/22 02:05:04;;;;;;;0.03;0.03;;;;;;;11.12;65.80;102139.38;7355851;19;20098;-58
2023/01/22 02:07:30;;;;;;;0.00;0.00;;;;;;;11.12;66.25;102142.88;7357557;19;20019;-58
2023/01/22 02:09:55;;;;;;;0.00;0.00;;;;;;;11.08;66.23;102133.28;7358854;19;20003;-57
2023/01/22 02:12:21;;;;;;;0.10;0.10;;;;;;;11.09;66.31;102144.59;7353849;19;20010;-56
2023/01/22 02:14:47;;;;;;;0.00;0.00;;;;;;;11.10;65.96;102151.56;7356929;19;20033;-58
2023/01/22 02:17:16;;;;;;;0.08;0.08;;;;;;;11.12;65.96;102144.63;7355542;19;20510;-58
2023/01/22 02:19:42;;;;;;;0.00;0.00;;;;;;;11.09;66.24;102140.25;7359221;19;20018;-58
2023/01/22 02:22:19;;;;;;;0.00;0.00;;;;;;;11.13;66.11;102133.28;7359976;19;20568;-57
2023/01/22 02:24:44;;;;;;;0.08;0.08;;;;;;;11.09;65.95;102135.00;7354006;19;20020;-58
2023/01/22 02:27:10;;;;;;;0.05;0.05;;;;;;;11.08;65.97;102128.06;7357995;19;20334;-57
2023/01/22 02:29:36;;;;;;;0.10;0.10;;;;;;;11.07;66.06;102126.31;7360045;19;20499;-58
2023/01/22 02:32:02;;;;;;;0.00;0.00;;;;;;;11.07;66.43;102131.53;7355072;19;20494;-58
2023/01/22 02:34:28;;;;;;;0.10;0.10;;;;;;;11.07;65.93;102147.22;7355397;19;20018;-58
2023/01/22 02:36:54;;;;;;;0.10;0.10;;;;;;;11.08;66.11;102141.13;7355447;19;20006;-57
2023/01/22 02:39:19;;;;;;;0.00;0.00;;;;;;;11.08;66.11;102138.50;7356666;19;20015;-58
2023/01/22 02:41:45;;;;;;;0.00;0.00;;;;;;;10.98;65.93;102131.56;7359017;19;20013;-58
2023/01/22 02:44:10;;;;;;;0.00;0.00;;;;;;;11.08;66.44;102138.50;7362174;19;20117;-57
2023/01/22 02:46:36;;;;;;;0.00;0.00;;;;;;;11.07;66.09;102126.31;7361099;19;20006;-57
2023/01/22 02:49:02;;;;;;;0.00;0.00;;;;;;;11.07;66.05;102121.09;7362211;19;20018;-59
2023/01/22 02:51:27;;;;;;;0.00;0.00;;;;;;;11.09;66.35;102124.56;7364009;19;20478;-57
2023/01/22 02:53:53;;;;;;;0.00;0.00;;;;;;;11.08;66.25;102112.38;7362258;19;20351;-58
2023/01/22 02:56:19;;;;;;;0.00;0.00;;;;;;;11.10;66.05;102128.94;7364881;19;20014;-58
2023/01/22 02:58:44;;;;;;;0.00;0.00;;;;;;;11.08;65.91;102117.59;7351564;19;20048;-57
2023/01/22 03:01:19;;;;;;;0.00;0.00;;;;;;;11.12;66.24;102119.34;7366988;19;20406;-58
2023/01/22 03:03:53;;;;;;;0.00;0.00;;;;;;;11.10;66.09;102107.13;7362972;19;21318;-58
2023/01/22 03:06:20;;;;;;;0.00;0.00;;;;;;;11.02;66.07;102091.47;7364154;19;20013;-58
2023/01/22 03:08:59;;;;;;;0.10;0.10;;;;;;;11.13;65.91;102104.50;7364879;19;20006;-57
2023/01/22 03:11:27;;;;;;;0.10;0.10;;;;;;;11.12;65.98;102103.66;7364025;19;20766;-57
2023/01/22 03:22:07;;;;;;;0.00;0.00;;;;;;;11.08;66.15;102081.00;7365112;19;20034;-56
2023/01/22 03:24:32;;;;;;;0.10;0.10;;;;;;;11.08;66.24;102081.00;7365185;19;20157;-58
2023/01/22 03:26:58;;;;;;;0.00;0.00;;;;;;;11.08;66.00;102081.00;7362518;19;20014;-57
2023/01/22 03:29:23;;;;;;;0.05;0.05;;;;;;;11.09;66.08;102084.47;7365543;19;21054;-57
2023/01/22 03:31:49;;;;;;;0.00;0.00;;;;;;;11.09;66.03;102093.19;7359765;19;20015;-57
2023/01/22 03:34:15;;;;;;;0.10;0.10;;;;;;;11.09;66.08;102090.56;7364676;19;20010;-58
2023/01/22 03:36:41;;;;;;;0.00;0.00;;;;;;;11.09;66.20;102098.41;7360160;19;20479;-58
2023/01/22 03:39:07;;;;;;;0.00;0.00;;;;;;;11.10;66.59;102100.19;7363931;19;20007;-58
2023/01/22 03:41:32;;;;;;;0.00;0.00;;;;;;;11.12;66.29;102114.09;7365344;19;20025;-57
2023/01/22 03:44:00;;;;;;;0.00;0.00;;;;;;;11.12;66.29;102127.19;7363395;19;20118;-58
2023/01/22 03:46:25;;;;;;;;;;;;;;;11.21;65.90;102117.59;7364138;19;20668;-57
2023/01/22 03:48:52;;;;;;;0.08;0.08;;;;;;;11.17;66.22;102122.81;7361771;19;19918;-57
2023/01/22 03:51:17;;;;;;;0.00;0.00;;;;;;;11.16;66.11;102121.06;7362689;19;20053;-57
2023/01/22 03:53:44;;;;;;;0.00;0.00;;;;;;;11.17;65.98;102122.81;7360485;19;26660;-57
2023/01/22 03:56:12;;;;;;;0.00;0.00;;;;;;;11.18;66.30;102145.47;7363438;19;20017;-57
2023/01/22 03:58:38;;;;;;;0.10;0.10;;;;;;;11.12;66.19;102139.38;7358140;19;20087;-56
2023/01/22 04:01:06;;;;;;;0.10;0.10;;;;;;;11.18;66.33;102161.16;7365268;19;20014;-58
2023/01/22 04:03:33;;;;;;;0.00;0.00;;;;;;;11.16;66.21;102152.44;7353392;19;20036;-58
2023/01/22 04:06:01;;;;;;;0.10;0.10;;;;;;;11.17;66.11;102143.72;7353540;19;20034;-57
2023/01/22 04:08:31;;;;;;;0.10;0.10;;;;;;;11.21;66.41;102135.88;7365334;19;20017;-57
2023/01/22 04:10:57;;;;;;;0.00;0.00;;;;;;;11.20;66.43;102126.28;7363683;19;20565;-57
2023/01/22 04:13:24;;;;;;;0.00;0.00;;;;;;;11.21;66.00;102117.59;7365379;19;20824;-57
2023/01/22 04:15:50;;;;;;;0.10;0.10;;;;;;;11.20;66.29;102118.44;7359103;19;20017;-57
2023/01/22 04:18:15;;;;;;;0.00;0.00;;;;;;;11.15;66.29;102121.06;7363517;19;20477;-57
2023/01/22 04:20:41;;;;;;;0.00;0.00;;;;;;;11.20;66.01;102121.03;7343375;19;20017;-57
2023/01/22 04:23:07;;;;;;;0.10;0.10;;;;;;;11.22;65.88;102121.94;7361539;19;20010;-57
2023/01/22 04:25:33;;;;;;;0.05;0.05;;;;;;;11.22;65.92;102120.19;7363228;19;20013;-58
2023/01/22 04:27:59;;;;;;;0.03;0.03;;;;;;;11.22;66.31;102094.03;7362589;19;22145;-58
2023/01/22 04:30:24;;;;;;;0.10;0.10;;;;;;;11.23;65.84;102095.78;7365259;19;20109;-57
2023/01/22 04:32:50;;;;;;;0.00;0.00;;;;;;;11.25;65.79;102073.09;7364151;19;22004;-57
2023/01/22 04:35:15;;;;;;;0.10;0.10;;;;;;;11.24;66.22;102070.50;7363534;19;20489;-58
2023/01/22 04:37:41;;;;;;;0.00;0.00;;;;;;;11.22;66.18;102062.66;7365796;19;20688;-58
2023/01/22 04:40:07;;;;;;;0.00;0.00;;;;;;;11.23;66.15;102087.94;7359569;19;20014;-58
2023/01/22 04:42:32;;;;;;;0.00;0.00;;;;;;;11.23;66.29;102081.84;7362023;19;22845;-58
2023/01/22 04:44:58;;;;;;;0.10;0.10;;;;;;;11.13;66.29;102062.69;7364048;19;20019;-58
2023/01/22 04:47:23;;;;;;;0.00;0.00;;;;;;;11.23;65.83;102085.31;7362427;19;21460;-58
2023/01/22 04:49:49;;;;;;;0.00;0.00;;;;;;;11.21;66.52;102089.69;7363423;19;20607;-56
2023/01/22 04:52:15;;;;;;;0.00;0.00;;;;;;;11.22;66.60;102098.41;7359192;19;20040;-57
2023/01/22 04:54:40;;;;;;;0.10;0.10;;;;;;;11.20;66.43;102101.00;7364005;19;20022;-57
2023/01/22 04:57:05;;;;;;;0.00;0.00;;;;;;;11.21;66.43;102091.44;7363759;19;20380;-57
2023/01/22 04:59:31;;;;;;;0.10;0.10;;;;;;;11.18;66.28;102093.16;7361555;19;20049;-58
2023/01/22 05:01:57;;;;;;;0.10;0.10;;;;;;;11.23;66.59;102100.13;7364399;19;20081;-57
2023/01/22 05:04:22;;;;;;;0.00;0.00;;;;;;;11.22;66.56;102087.94;7357584;19;20022;-57
2023/01/22 05:06:48;;;;;;;0.00;0.00;;;;;;;11.21;66.32;102097.53;7360179;19;20014;-58
2023/01/22 05:09:14;;;;;;;0.00;0.00;;;;;;;11.21;66.64;102097.53;7363009;19;20076;-57
2023/01/22 05:11:40;;;;;;;0.00;0.00;;;;;;;11.17;66.79;102104.50;7360367;19;21361;-58
2023/01/22 05:14:05;;;;;;;0.00;0.00;;;;;;;11.21;66.44;102117.59;7362190;19;20425;-57
2023/01/22 05:16:31;;;;;;;0.10;0.10;;;;;;;11.23;66.71;102115.81;7361364;19;20041;-57
2023/01/22 05:18:56;;;;;;;0.00;0.00;;;;;;;11.25;66.55;102121.91;7361319;19;20011;-58
2023/01/22 05:21:22;;;;;;;0.00;0.00;;;;;;;11.26;66.38;102123.69;7361239;19;21096;-57
2023/01/22 05:23:47;;;;;;;0.00;0.00;;;;;;;11.25;66.71;102125.38;7362976;19;20010;-57
2023/01/22 05:26:12;;;;;;;0.10;0.10;;;;;;;11.28;66.32;102121.91;7361129;19;20006;-58
2023/01/22 05:28:38;;;;;;;0.00;0.00;;;;;;;11.27;66.59;102118.44;7362113;19;20007;-58
2023/01/22 05:31:03;;;;;;;0.00;0.00;;;;;;;11.17;66.87;102093.19;7361898;19;20010;-58
2023/01/22 05:33:29;;;;;;;0.00;0.00;;;;;;;11.23;66.54;102113.22;7359802;19;20018;-58
2023/01/22 05:35:56;;;;;;;0.00;0.00;;;;;;;11.32;66.95;102128.88;7364375;19;20035;-57
2023/01/22 05:38:22;;;;;;;0.00;0.00;;;;;;;11.25;66.85;102106.22;7363576;19;20008;-58
2023/01/22 05:40:48;;;;;;;0.00;0.00;;;;;;;11.30;67.20;102122.75;7363111;19;20049;-57
2023/01/22 05:43:13;;;;;;;0.00;0.00;;;;;;;11.31;67.09;102124.53;7359306;19;20028;-57
2023/01/22 05:45:38;;;;;;;0.05;0.05;;;;;;;11.22;66.78;102125.41;7360569;19;25017;-57
2023/01/22 05:48:04;;;;;;;0.00;0.00;;;;;;;11.28;67.13;102140.22;7357431;19;20014;-55
2023/01/22 05:50:29;;;;;;;0.00;0.00;;;;;;;11.27;67.33;102144.56;7363357;19;20403;-58
2023/01/22 05:52:55;;;;;;;0.00;0.00;;;;;;;11.26;66.98;102144.59;7357801;19;20454;-57
2023/01/22 05:55:20;;;;;;;0.00;0.00;;;;;;;11.13;67.12;102126.31;7363174;19;20011;-57
2023/01/22 05:57:46;;;;;;;0.00;0.00;;;;;;;11.23;67.49;102136.75;7359089;19;20077;-56
2023/01/22 06:00:12;;;;;;;0.00;0.00;;;;;;;11.21;67.13;102138.50;7363063;19;20022;-58
2023/01/22 06:02:38;;;;;;;0.00;0.00;;;;;;;11.20;67.16;102137.59;7356928;19;20364;-56
2023/01/22 06:05:03;;;;;;;0.10;0.10;;;;;;;11.10;67.45;102115.88;7362690;19;20675;-58
2023/01/22 06:07:29;;;;;;;0.00;0.00;;;;;;;11.20;67.27;102141.97;7359815;19;20529;-57
2023/01/22 06:09:55;;;;;;;0.00;0.00;;;;;;;11.17;67.25;102138.50;7356486;19;20009;-58
2023/01/22 06:12:20;;;;;;;0.10;0.10;;;;;;;11.13;67.30;102136.75;7360721;19;20010;-57
2023/01/22 06:14:46;;;;;;;0.10;0.10;;;;;;;11.16;67.42;102142.00;7362905;19;20485;-57
2023/01/22 06:17:11;;;;;;;0.05;0.05;;;;;;;11.15;67.30;102135.03;7358210;19;20124;-58
2023/01/22 06:19:36;;;;;;;0.00;0.00;;;;;;;11.19;67.03;102146.31;7361588;19;20822;-58
2023/01/22 06:22:02;;;;;;;0.00;0.00;;;;;;;11.17;67.68;102143.72;7359151;19;20368;-56
2023/01/22 06:24:27;;;;;;;0.10;0.10;;;;;;;11.16;67.87;102142.00;7356800;19;20011;-57
2023/01/22 06:26:53;;;;;;;0.00;0.00;;;;;;;11.09;68.01;102132.41;7359847;19;20015;-58
2023/01/22 06:29:18;;;;;;;0.10;0.10;;;;;;;11.14;67.72;102138.50;7359413;19;20474;-57
2023/01/22 06:31:43;;;;;;;0.00;0.00;;;;;;;11.12;67.55;102134.16;7358414;19;20022;-57
2023/01/22 06:34:09;;;;;;;0.00;0.00;;;;;;;11.13;67.71;102136.75;7359787;19;20006;-56
2023/01/22 06:36:34;;;;;;;0.10;0.10;;;;;;;11.10;68.28;102128.03;7361289;19;20014;-56
2023/01/22 06:39:00;;;;;;;0.10;0.10;;;;;;;11.08;67.91;102125.44;7359571;19;20089;-58
2023/01/22 06:41:25;;;;;;;0.00;0.00;;;;;;;11.09;67.29;102129.78;7361001;19;20007;-58
2023/01/22 06:43:51;;;;;;;0.00;0.00;;;;;;;11.06;68.06;102119.34;7360253;19;20030;-58
2023/01/22 06:46:16;;;;;;;0.00;0.00;;;;;;;11.08;67.97;102128.06;7359780;19;20011;-57
2023/01/22 06:48:42;;;;;;;0.00;0.00;;;;;;;11.07;67.94;102115.00;7361223;19;20460;-57
2023/01/22 06:51:11;;;;;;;0.00;0.00;;;;;;;11.06;67.62;102111.50;7358775;19;20026;-58
2023/01/22 06:53:37;;;;;;;0.00;0.00;;;;;;;11.06;67.83;102108.91;7360822;19;20010;-57
2023/01/22 06:56:02;;;;;;;0.00;0.00;;;;;;;11.05;67.87;102104.56;7360575;19;20480;-57
2023/01/22 06:58:28;;;;;;;0.05;0.05;;;;;;;11.07;67.56;102099.31;7350124;19;20029;-57
2023/01/22 07:00:53;;;;;;;0.00;0.00;;;;;;;11.06;68.00;102101.06;7357761;19;20077;-57
2023/01/22 07:03:19;;;;;;;0.00;0.00;;;;;;;11.05;67.79;102101.94;7357966;19;20014;-57
2023/01/22 07:05:44;;;;;;;0.00;0.00;;;;;;;10.98;67.97;102089.72;7344614;19;20102;-58
2023/01/22 07:08:16;;;;;;;0.08;0.08;;;;;;;11.08;67.78;102101.03;7356924;19;20099;-57
2023/01/22 07:10:41;;;;;;;0.10;0.10;;;;;;;11.04;67.98;102110.63;7352365;19;20038;-57
2023/01/22 07:13:09;;;;;;;0.00;0.00;;;;;;;10.97;68.14;102108.91;7349065;19;20002;-57
2023/01/22 07:15:34;;;;;;;0.00;0.00;;;;;;;11.05;68.17;102133.31;7358874;19;20014;-57
2023/01/22 07:17:59;;;;;;;0.08;0.08;;;;;;;11.05;68.04;102140.25;7358160;19;26378;-58
2023/01/22 07:20:25;;;;;;;0.10;0.10;;;;;;;11.07;67.82;102149.84;7350895;19;21197;-58
2023/01/22 07:22:50;;;;;;;0.00;0.00;;;;;;;11.08;68.55;102154.19;7356251;19;20010;-58
2023/01/22 07:25:17;;;;;;;0.00;0.00;;;;;;;11.09;68.69;102161.16;7355095;19;20476;-58
2023/01/22 07:27:43;;;;;;;0.10;0.10;;;;;;;11.08;69.11;102164.66;7353562;19;21697;-58
2023/01/22 07:30:09;;;;;;;0.00;0.00;;;;;;;11.00;68.95;102147.22;7362188;19;20038;-57
2023/01/22 07:32:35;;;;;;;0.05;0.05;;;;;;;11.06;69.37;102155.09;7363696;19;21422;-57
2023/01/22 07:35:00;;;;;;;0.00;0.00;;;;;;;11.03;69.83;102155.94;7362017;19;20014;-57
2023/01/22 07:37:26;;;;;;;0.03;0.03;;;;;;;11.01;68.91;102157.69;7367450;19;21261;-57
2023/01/22 07:39:51;;;;;;;0.10;0.10;;;;;;;11.00;69.14;102169.03;7360241;19;20006;-58
2023/01/22 07:42:16;;;;;;;0.00;0.00;;;;;;;10.96;69.41;102154.22;7364929;19;20746;-57
2023/01/22 07:44:42;;;;;;;0.00;0.00;;;;;;;10.92;69.67;102152.47;7357605;19;20600;-57
2023/01/22 07:47:08;;;;;;;0.10;0.10;;;;;;;10.76;69.51;102135.06;7362908;19;20013;-57
2023/01/22 07:49:33;;;;;;;0.00;0.00;;;;;;;10.54;70.06;102103.75;7360413;19;20752;-58
2023/01/22 07:51:59;;;;;;;0.00;0.00;;;;;;;10.83;69.81;102152.47;7367147;19;20070;-57
2023/01/22 07:54:24;;;;;;;0.00;0.00;;;;;;;10.79;70.00;102150.72;7354227;19;20392;-57
2023/01/22 07:56:50;;;;;;;0.00;0.00;;;;;;;10.76;70.80;102148.13;7366720;19;20011;-58
2023/01/22 07:59:15;;;;;;;0.03;0.03;;;;;;;10.74;70.98;102147.25;7358600;19;20007;-57
2023/01/22 08:01:41;;;;;;;0.00;0.00;;;;;;;10.64;71.01;102131.59;7364751;19;20013;-56
2023/01/22 08:04:06;;;;;;;0.00;0.00;;;;;;;10.65;70.86;102156.84;7355676;19;20014;-58
2023/01/22 08:06:32;;;;;;;0.00;0.00;;;;;;;10.67;71.31;102167.28;7364902;19;20041;-58
2023/01/22 08:08:58;;;;;;;0.00;0.00;;;;;;;10.65;71.74;102169.91;7358271;19;20463;-57
2023/01/22 08:11:24;;;;;;;0.00;0.00;;;;;;;10.51;71.62;102150.75;7363554;19;20014;-57
2023/01/22 08:13:50;;;;;;;0.00;0.00;;;;;;;10.64;71.67;102186.47;7361026;19;20006;-57
2023/01/22 08:16:15;;;;;;;0.00;0.00;;;;;;;10.62;71.96;102190.78;7361716;19;20022;-58
2023/01/22 08:18:40;;;;;;;0.00;0.00;;;;;;;10.62;71.46;102188.19;7363920;19;20378;-57
2023/01/22 08:21:06;;;;;;;0.08;0.08;;;;;;;10.61;71.96;102173.38;7359434;19;20022;-57
2023/01/22 08:23:34;;;;;;;0.00;0.00;;;;;;;10.61;71.88;102173.38;7362022;19;20042;-58
2023/01/22 08:26:02;;;;;;;0.00;0.00;;;;;;;10.56;71.93;102180.34;7360583;19;20014;-58
2023/01/22 08:28:28;;;;;;;0.08;0.08;;;;;;;10.60;71.81;102189.94;7363608;19;20031;-56
2023/01/22 08:30:58;;;;;;;0.00;0.00;;;;;;;10.62;71.97;102188.19;7361701;19;21033;-56
2023/01/22 08:33:24;;;;;;;0.00;0.00;;;;;;;10.59;71.66;102182.97;7360032;19;20002;-58
2023/01/22 08:35:50;;;;;;;0.00;0.00;;;;;;;10.60;71.48;102182.09;7363836;19;21651;-57
2023/01/22 08:38:15;;;;;;;0.05;0.05;;;;;;;10.48;71.71;102166.41;7363787;19;20949;-57
2023/01/22 08:40:40;;;;;;;0.10;0.10;;;;;;;10.59;71.27;102185.59;7360190;19;20014;-58
2023/01/22 08:43:06;;;;;;;0.05;0.05;;;;;;;10.59;71.42;102171.63;7357326;19;20010;-58
2023/01/22 08:45:32;;;;;;;0.03;0.03;;;;;;;10.58;71.44;102170.75;7361144;19;20113;-58
2023/01/22 08:47:59;;;;;;;0.00;0.00;;;;;;;10.58;71.45;102169.88;7358686;19;20006;-58
2023/01/22 08:50:25;;;;;;;0.00;0.00;;;;;;;10.59;71.93;102163.78;7354867;19;20025;-56
2023/01/22 08:52:51;;;;;;;0.00;0.00;;;;;;;10.57;71.91;102166.41;7349817;19;20050;-58
2023/01/22 08:55:16;;;;;;;0.05;0.05;;;;;;;10.61;71.86;102176.00;7358034;19;22813;-58
2023/01/22 08:57:42;;;;;;;0.00;0.00;;;;;;;10.62;71.71;102174.25;7359253;19;20043;-58
2023/01/22 09:00:08;;;;;;;0.00;0.00;;;;;;;10.58;71.26;102156.81;7351704;19;20734;-57
2023/01/22 09:02:33;;;;;;;0.10;0.10;;;;;;;10.64;71.61;102173.41;7353939;19;20031;-57
2023/01/22 09:04:59;;;;;;;0.05;0.05;;;;;;;10.67;70.89;102169.03;7348624;19;20086;-60
2023/01/22 09:07:24;;;;;;;0.10;0.10;;;;;;;10.69;71.23;102165.53;7332371;19;20038;-58
2023/01/22 09:09:50;;;;;;;0.00;0.00;;;;;;;10.72;71.40;102169.91;7352082;19;20031;-58
2023/01/22 09:12:15;;;;;;;0.00;0.00;;;;;;;10.71;71.36;102161.19;7352573;19;20489;-58
2023/01/22 09:14:40;;;;;;;0.08;0.08;;;;;;;10.74;70.98;102173.38;7356374;19;20006;-58
2023/01/22 09:17:06;;;;;;;0.00;0.00;;;;;;;10.73;71.16;102155.97;7356134;19;20022;-58
2023/01/22 09:19:31;;;;;;;0.00;0.00;;;;;;;10.79;70.90;102167.28;7348394;19;20007;-57
2023/01/22 09:21:57;;;;;;;0.00;0.00;;;;;;;10.81;71.41;102170.78;7354036;19;20038;-58
2023/01/22 09:24:22;;;;;;;0.00;0.00;;;;;;;10.86;71.64;102168.16;7353796;19;20022;-58
2023/01/22 09:26:47;;;;;;;0.00;0.00;;;;;;;10.88;71.23;102179.47;7354603;19;20440;-56
2023/01/22 09:29:13;;;;;;;0.00;0.00;;;;;;;10.92;71.09;102183.84;7355286;19;20782;-57
2023/01/22 09:31:38;;;;;;;0.00;0.00;;;;;;;10.95;71.39;102182.94;7361189;19;20039;-57
2023/01/22 09:34:04;;;;;;;0.00;0.00;;;;;;;10.95;71.84;102178.63;7360071;19;20027;-58
2023/01/22 09:36:29;;;;;;;0.00;0.00;;;;;;;11.01;71.56;102181.22;7362074;19;20414;-58
2023/01/22 09:38:55;;;;;;;0.10;0.10;;;;;;;11.05;71.61;102189.91;7362830;19;20018;-57
2023/01/22 09:41:26;;;;;;;0.05;0.05;;;;;;;11.07;71.78;102191.66;7359187;19;20014;-57
2023/01/22 09:44:08;;;;;;;0.03;0.03;;;;;;;11.13;71.26;102193.41;7358845;19;20372;-58
2023/01/22 09:46:40;;;;;;;0.08;0.08;;;;;;;11.20;71.36;102196.88;7356399;19;20012;-57
2023/01/22 09:49:20;;;;;;;0.00;0.00;;;;;;;11.25;71.11;102195.13;7350078;19;20022;-57
2023/01/22 09:51:51;;;;;;;0.00;0.00;;;;;;;11.28;71.71;102188.16;7348724;19;20007;-58
2023/01/22 09:54:17;;;;;;;0.00;0.00;;;;;;;11.32;70.72;102200.34;7344868;19;20021;-57
2023/01/22 09:56:45;;;;;;;0.00;0.00;;;;;;;11.28;71.31;102182.06;7350196;19;26561;-56
2023/01/22 09:59:16;;;;;;;0.00;0.00;;;;;;;11.40;71.13;102200.31;7349698;19;20066;-57
2023/01/22 10:01:46;;;;;;;0.00;0.00;;;;;;;11.43;71.28;102197.72;7348778;19;20027;-58
2023/01/22 10:04:21;;;;;;;0.00;0.00;;;;;;;11.38;71.48;102199.47;7352368;19;20013;-57
2023/01/22 10:06:48;;;;;;;0.00;0.00;;;;;;;11.50;71.11;102209.91;7344877;19;20031;-58
2023/01/22 10:09:17;;;;;;;0.00;0.00;;;;;;;11.56;70.88;102229.97;7349389;19;20486;-55
2023/01/22 10:11:48;;;;;;;0.00;0.00;;;;;;;11.55;71.42;102215.13;7349870;19;20016;-58
2023/01/22 10:14:17;;;;;;;0.10;0.10;;;;;;;11.62;71.23;102230.81;7351377;19;20010;-57
2023/01/22 10:16:44;;;;;;;0.00;0.00;;;;;;;11.65;71.46;102228.16;7345775;19;20514;-58
2023/01/22 10:19:31;;;;;;;0.00;0.00;;;;;;;11.73;70.89;102237.75;7348260;19;20057;-56
2023/01/22 10:22:03;;;;;;;0.10;0.10;;;;;;;11.74;71.19;102240.38;7253684;19;2004404;-57
2023/01/22 10:24:29;;;;;;;0.00;0.00;;;;;;;11.74;70.87;102250.84;7356232;19;20010;-56
2023/01/22 10:26:57;;;;;;;0.00;0.00;;;;;;;11.74;71.37;102249.97;7357512;19;22386;-58
2023/01/22 10:29:28;;;;;;;0.10;0.10;;;;;;;11.82;71.11;102253.47;7355081;19;20911;-58
2023/01/22 10:31:56;;;;;;;0.00;0.00;;;;;;;11.83;71.20;102263.06;7359813;19;20010;-57
2023/01/22 10:34:34;;;;;;;0.00;0.00;;;;;;;11.86;70.98;102260.41;7352873;19;20520;-57
2023/01/22 10:37:18;;;;;;;0.00;0.00;;;;;;;11.91;70.84;102258.66;7358914;19;20587;-58
2023/01/22 10:39:46;;;;;;;0.10;0.10;;;;;;;11.91;70.88;102258.66;7359007;19;20043;-57
2023/01/22 10:42:17;;;;;;;0.00;0.00;;;;;;;11.95;71.17;102260.41;7357531;19;20554;-57
2023/01/22 10:44:42;;;;;;;0.00;0.00;;;;;;;11.93;71.43;102256.94;7357096;19;21193;-58
2023/01/22 10:47:19;;;;;;;0.00;0.00;;;;;;;11.99;71.27;102261.28;7359012;19;20062;-58
2023/01/22 10:49:45;;;;;;;0.00;0.00;;;;;;;11.97;71.07;102258.66;7355829;19;21193;-57
2023/01/22 10:52:32;;;;;;;0.10;0.10;;;;;;;11.98;70.61;102255.16;7358991;19;22159;-58
2023/01/22 10:54:59;;;;;;;0.00;0.00;;;;;;;12.01;70.81;102257.75;7256667;19;2004508;-56
2023/01/22 10:57:26;;;;;;;0.00;0.00;;;;;;;12.04;71.13;102249.91;7354431;19;20378;-57
2023/01/22 10:59:59;;;;;;;0.00;0.00;;;;;;;12.09;70.65;102257.75;7355695;19;20009;-58
2023/01/22 11:02:25;;;;;;;0.10;0.10;;;;;;;12.09;70.75;102263.84;7354451;19;20830;-57
2023/01/22 11:04:51;;;;;;;0.00;0.00;;;;;;;12.12;70.49;102261.22;7354678;19;20003;-57
2023/01/22 11:07:21;;;;;;;0.00;0.00;;;;;;;12.15;70.84;102263.81;7359197;19;20010;-58
2023/01/22 11:09:53;;;;;;;0.00;0.00;;;;;;;12.22;70.76;102266.44;7357306;19;20006;-58
2023/01/22 11:12:25;;;;;;;0.08;0.08;;;;;;;12.23;70.58;102260.31;7358638;19;20023;-57
2023/01/22 11:15:02;;;;;;;0.00;0.00;;;;;;;12.25;70.55;102267.25;7361030;19;20023;-58
2023/01/22 11:17:36;;;;;;;0.10;0.10;;;;;;;12.22;71.16;102255.94;7362069;19;20014;-58
2023/01/22 11:20:23;;;;;;;0.03;0.03;;;;;;;12.28;71.03;102274.25;7356144;19;20007;-57
2023/01/22 11:22:58;;;;;;;;;;;;;;;12.36;70.04;102267.22;7355280;19;20006;-58
2023/01/22 11:25:25;;;;;;;0.00;0.00;;;;;;;12.34;70.48;102269.84;7357326;19;19959;-59
2023/01/22 11:28:27;;;;;;;0.08;0.08;;;;;;;12.38;70.02;102263.72;7357089;19;20098;-57
2023/01/22 11:31:15;;;;;;;0.00;0.00;;;;;;;12.41;69.90;102268.06;7254104;19;2004823;-57
2023/01/22 11:33:59;;;;;;;0.00;0.00;;;;;;;12.43;70.03;102258.47;7358096;19;20569;-58
2023/01/22 11:36:45;;;;;;;0.10;0.10;;;;;;;12.41;70.22;102260.19;7357764;19;20010;-58